DAL820 KSLC-KDCA
Flight info
| Callsign | DAL820 |
|---|---|
| Flight time | N/A |
| Altitude | 35000 |
| Route | RUGGD3 OCS J94 ONL FOD DBQ J94 OBK GIJ PLAIN Q186 WOOST J34 BUCKO FRDMM6 |
| Aircraft | A21N/M-SDE3FGHIRWY/LB1 |
Departure
| Time | 2026-05-07 00:30 |
|---|---|
| Airport | Salt Lake City International Airport (KSLC) |
Arrival
| Time | N/A |
|---|---|
| Airport | Ronald Reagan Washington National Airport (KDCA) |
| Time | Latitude | Longitude | Altitude | Speed | Heading |
|---|---|---|---|---|---|
| 2026-05-07 00:09 | 40.78560 | -111.97896 | 4228 ft | 0 kts | 354° |
| 2026-05-07 00:20 | 40.78545 | -111.97894 | 4230 ft | 3 kts | 354° |
| 2026-05-07 00:20 | 40.78525 | -111.97894 | 4230 ft | 2 kts | 6° |
| 2026-05-07 00:20 | 40.78512 | -111.97900 | 4230 ft | 1 kts | 31° |
| 2026-05-07 00:20 | 40.78504 | -111.97909 | 4230 ft | 1 kts | 47° |
| 2026-05-07 00:21 | 40.78498 | -111.97918 | 4230 ft | 1 kts | 53° |
| 2026-05-07 00:21 | 40.78496 | -111.97924 | 4230 ft | 0 kts | 78° |
| 2026-05-07 00:21 | 40.78495 | -111.97925 | 4230 ft | 0 kts | 81° |
| 2026-05-07 00:21 | 40.78496 | -111.97925 | 4230 ft | 0 kts | 81° |
| 2026-05-07 00:23 | 40.78495 | -111.97925 | 4230 ft | 0 kts | 81° |
| 2026-05-07 00:23 | 40.78496 | -111.97924 | 4230 ft | 0 kts | 82° |
| 2026-05-07 00:23 | 40.78496 | -111.97916 | 4230 ft | 1 kts | 84° |
| 2026-05-07 00:23 | 40.78498 | -111.97892 | 4230 ft | 4 kts | 83° |
| 2026-05-07 00:24 | 40.78503 | -111.97843 | 4230 ft | 5 kts | 83° |
| 2026-05-07 00:24 | 40.78509 | -111.97784 | 4231 ft | 6 kts | 79° |
| 2026-05-07 00:24 | 40.78520 | -111.97719 | 4231 ft | 7 kts | 81° |
| 2026-05-07 00:24 | 40.78498 | -111.97658 | 4231 ft | 8 kts | 153° |
| 2026-05-07 00:25 | 40.78437 | -111.97645 | 4231 ft | 9 kts | 175° |
| 2026-05-07 00:25 | 40.78371 | -111.97636 | 4231 ft | 9 kts | 174° |
| 2026-05-07 00:25 | 40.78296 | -111.97628 | 4231 ft | 12 kts | 175° |
| 2026-05-07 00:25 | 40.78203 | -111.97618 | 4232 ft | 14 kts | 175° |
| 2026-05-07 00:26 | 40.78092 | -111.97604 | 4232 ft | 17 kts | 174° |
| 2026-05-07 00:26 | 40.77968 | -111.97588 | 4232 ft | 18 kts | 168° |
| 2026-05-07 00:26 | 40.77853 | -111.97530 | 4232 ft | 17 kts | 167° |
| 2026-05-07 00:26 | 40.77733 | -111.97513 | 4233 ft | 16 kts | 174° |
| 2026-05-07 00:27 | 40.77618 | -111.97499 | 4233 ft | 15 kts | 176° |
| 2026-05-07 00:27 | 40.77547 | -111.97491 | 4233 ft | 10 kts | 174° |
| 2026-05-07 00:27 | 40.77495 | -111.97485 | 4233 ft | 5 kts | 173° |
| 2026-05-07 00:27 | 40.77487 | -111.97483 | 4233 ft | 0 kts | 169° |
| 2026-05-07 00:28 | 40.77482 | -111.97482 | 4233 ft | 2 kts | 167° |
| 2026-05-07 00:29 | 40.77452 | -111.97420 | 4233 ft | 11 kts | 80° |
| 2026-05-07 00:29 | 40.77495 | -111.97330 | 4234 ft | 11 kts | 29° |
| 2026-05-07 00:30 | 40.78783 | -111.97469 | 4230 ft | 147 kts | 354° |
| 2026-05-07 00:30 | 40.79952 | -111.97600 | 4378 ft | 178 kts | 354° |
| 2026-05-07 00:30 | 40.81171 | -111.97783 | 4954 ft | 180 kts | 351° |
| 2026-05-07 00:30 | 40.82406 | -111.98051 | 5574 ft | 183 kts | 349° |
| 2026-05-07 00:31 | 40.83662 | -111.98360 | 6207 ft | 184 kts | 349° |
| 2026-05-07 00:31 | 40.84932 | -111.98636 | 6640 ft | 188 kts | 350° |
| 2026-05-07 00:31 | 40.86259 | -111.98914 | 6958 ft | 199 kts | 351° |
| 2026-05-07 00:31 | 40.87655 | -111.99203 | 7277 ft | 211 kts | 350° |
| 2026-05-07 00:32 | 40.89170 | -111.99509 | 7530 ft | 228 kts | 351° |
| 2026-05-07 00:32 | 40.90807 | -111.99838 | 7784 ft | 247 kts | 351° |
| 2026-05-07 00:32 | 40.92554 | -112.00194 | 8109 ft | 264 kts | 351° |
| 2026-05-07 00:32 | 40.94404 | -112.00575 | 8553 ft | 274 kts | 351° |
| 2026-05-07 00:33 | 40.96284 | -112.00966 | 9195 ft | 276 kts | 351° |
| 2026-05-07 00:33 | 40.98166 | -112.01364 | 9851 ft | 277 kts | 351° |
| 2026-05-07 00:33 | 41.00095 | -112.01779 | 10382 ft | 283 kts | 351° |
| 2026-05-07 00:33 | 41.02092 | -112.02203 | 10657 ft | 298 kts | 353° |
| 2026-05-07 00:34 | 41.04166 | -112.02007 | 10990 ft | 309 kts | 19° |
| 2026-05-07 00:34 | 41.05948 | -112.00394 | 11575 ft | 315 kts | 46° |
| 2026-05-07 00:34 | 41.07020 | -111.97907 | 12193 ft | 322 kts | 69° |
| 2026-05-07 00:34 | 41.07270 | -111.94898 | 12760 ft | 332 kts | 90° |
| 2026-05-07 00:35 | 41.07078 | -111.91867 | 13328 ft | 335 kts | 90° |
| 2026-05-07 00:35 | 41.06900 | -111.88769 | 13853 ft | 338 kts | 89° |
| 2026-05-07 00:35 | 41.06743 | -111.85688 | 14357 ft | 341 kts | 89° |
| 2026-05-07 00:35 | 41.06595 | -111.82526 | 14879 ft | 344 kts | 89° |
| 2026-05-07 00:36 | 41.06453 | -111.79363 | 15405 ft | 346 kts | 88° |
| 2026-05-07 00:36 | 41.06314 | -111.76216 | 15914 ft | 348 kts | 88° |
| 2026-05-07 00:36 | 41.06175 | -111.73030 | 16420 ft | 349 kts | 88° |
| 2026-05-07 00:36 | 41.06033 | -111.69799 | 16914 ft | 351 kts | 88° |
| 2026-05-07 00:37 | 41.05892 | -111.66573 | 17394 ft | 353 kts | 88° |
| 2026-05-07 00:37 | 41.05749 | -111.63331 | 17869 ft | 355 kts | 88° |
| 2026-05-07 00:37 | 41.05606 | -111.60093 | 18337 ft | 356 kts | 88° |
| 2026-05-07 00:37 | 41.05459 | -111.56812 | 18798 ft | 358 kts | 88° |
| 2026-05-07 00:38 | 41.05310 | -111.53500 | 19238 ft | 360 kts | 88° |
| 2026-05-07 00:38 | 41.05161 | -111.50210 | 19652 ft | 362 kts | 88° |
| 2026-05-07 00:38 | 41.05010 | -111.46899 | 20062 ft | 364 kts | 87° |
| 2026-05-07 00:38 | 41.04871 | -111.43552 | 20468 ft | 365 kts | 86° |
| 2026-05-07 00:39 | 41.04865 | -111.40179 | 20872 ft | 365 kts | 82° |
| 2026-05-07 00:39 | 41.05024 | -111.36877 | 21262 ft | 364 kts | 78° |
| 2026-05-07 00:39 | 41.05304 | -111.33552 | 21649 ft | 365 kts | 78° |
| 2026-05-07 00:39 | 41.05604 | -111.30173 | 22029 ft | 367 kts | 77° |
| 2026-05-07 00:40 | 41.05900 | -111.26843 | 22399 ft | 369 kts | 77° |
| 2026-05-07 00:40 | 41.06200 | -111.23444 | 22764 ft | 371 kts | 77° |
| 2026-05-07 00:40 | 41.06494 | -111.20075 | 23091 ft | 373 kts | 77° |
| 2026-05-07 00:40 | 41.06790 | -111.16647 | 23430 ft | 375 kts | 77° |
| 2026-05-07 00:41 | 41.07084 | -111.13222 | 23770 ft | 377 kts | 77° |
| 2026-05-07 00:41 | 41.07384 | -111.09765 | 24103 ft | 378 kts | 77° |
| 2026-05-07 00:41 | 41.07810 | -111.06352 | 24424 ft | 377 kts | 72° |
| 2026-05-07 00:41 | 41.08440 | -111.02971 | 24751 ft | 376 kts | 68° |
| 2026-05-07 00:42 | 41.09238 | -110.99719 | 25063 ft | 375 kts | 65° |
| 2026-05-07 00:42 | 41.10104 | -110.96429 | 25376 ft | 377 kts | 65° |
| 2026-05-07 00:42 | 41.10978 | -110.93129 | 25697 ft | 379 kts | 65° |
| 2026-05-07 00:42 | 41.11847 | -110.89844 | 26010 ft | 380 kts | 65° |
| 2026-05-07 00:43 | 41.12711 | -110.86558 | 26316 ft | 382 kts | 65° |
| 2026-05-07 00:43 | 41.13589 | -110.83215 | 26621 ft | 383 kts | 65° |
| 2026-05-07 00:43 | 41.14463 | -110.79873 | 26918 ft | 385 kts | 65° |
| 2026-05-07 00:43 | 41.15332 | -110.76547 | 27204 ft | 386 kts | 65° |
| 2026-05-07 00:44 | 41.16209 | -110.73186 | 27485 ft | 388 kts | 65° |
| 2026-05-07 00:44 | 41.17085 | -110.69800 | 27758 ft | 389 kts | 65° |
| 2026-05-07 00:44 | 41.17957 | -110.66423 | 28022 ft | 391 kts | 65° |
| 2026-05-07 00:44 | 41.18840 | -110.62996 | 28289 ft | 393 kts | 65° |
| 2026-05-07 00:45 | 41.19725 | -110.59557 | 28552 ft | 394 kts | 65° |
| 2026-05-07 00:45 | 41.20602 | -110.56142 | 28811 ft | 396 kts | 65° |
| 2026-05-07 00:45 | 41.21487 | -110.52692 | 29071 ft | 397 kts | 65° |
| 2026-05-07 00:45 | 41.22375 | -110.49229 | 29334 ft | 398 kts | 65° |
| 2026-05-07 00:46 | 41.23265 | -110.45750 | 29590 ft | 399 kts | 65° |
| 2026-05-07 00:46 | 41.24154 | -110.42269 | 29841 ft | 401 kts | 65° |
| 2026-05-07 00:46 | 41.25043 | -110.38787 | 30084 ft | 402 kts | 65° |
| 2026-05-07 00:46 | 41.25945 | -110.35244 | 30328 ft | 403 kts | 65° |
| 2026-05-07 00:47 | 41.26844 | -110.31709 | 30570 ft | 404 kts | 66° |
| 2026-05-07 00:47 | 41.27735 | -110.28201 | 30793 ft | 406 kts | 66° |
| 2026-05-07 00:47 | 41.28644 | -110.24616 | 31002 ft | 408 kts | 66° |
| 2026-05-07 00:47 | 41.29541 | -110.21074 | 31206 ft | 410 kts | 66° |
| 2026-05-07 00:48 | 41.30454 | -110.17465 | 31410 ft | 411 kts | 65° |
| 2026-05-07 00:48 | 41.31353 | -110.13902 | 31601 ft | 413 kts | 65° |
| 2026-05-07 00:48 | 41.32264 | -110.10289 | 31803 ft | 414 kts | 65° |
| 2026-05-07 00:48 | 41.33183 | -110.06637 | 32065 ft | 414 kts | 65° |
| 2026-05-07 00:49 | 41.34095 | -110.03001 | 32328 ft | 414 kts | 65° |
| 2026-05-07 00:49 | 41.35001 | -109.99387 | 32570 ft | 414 kts | 65° |
| 2026-05-07 00:49 | 41.35916 | -109.95735 | 32802 ft | 415 kts | 65° |
| 2026-05-07 00:49 | 41.36814 | -109.92147 | 33029 ft | 415 kts | 65° |
| 2026-05-07 00:50 | 41.37729 | -109.88483 | 33256 ft | 416 kts | 65° |
| 2026-05-07 00:50 | 41.38641 | -109.84828 | 33458 ft | 416 kts | 65° |
| 2026-05-07 00:50 | 41.39547 | -109.81190 | 33634 ft | 418 kts | 65° |
| 2026-05-07 00:50 | 41.40458 | -109.77531 | 33797 ft | 419 kts | 65° |
| 2026-05-07 00:51 | 41.41378 | -109.73827 | 33961 ft | 421 kts | 65° |
| 2026-05-07 00:51 | 41.42292 | -109.70140 | 34127 ft | 422 kts | 65° |
| 2026-05-07 00:51 | 41.43206 | -109.66448 | 34291 ft | 423 kts | 65° |
| 2026-05-07 00:51 | 41.44121 | -109.62743 | 34449 ft | 424 kts | 65° |
| 2026-05-07 00:52 | 41.45043 | -109.59006 | 34601 ft | 426 kts | 64° |
| 2026-05-07 00:52 | 41.45969 | -109.55246 | 34759 ft | 427 kts | 64° |
| 2026-05-07 00:52 | 41.46891 | -109.51498 | 34923 ft | 428 kts | 65° |
| 2026-05-07 00:52 | 41.47810 | -109.47755 | 35086 ft | 429 kts | 64° |
| 2026-05-07 00:53 | 41.49665 | -109.40182 | 35107 ft | 430 kts | 65° |
| 2026-05-07 00:53 | 41.51500 | -109.32663 | 35109 ft | 430 kts | 65° |
| 2026-05-07 00:54 | 41.53348 | -109.25064 | 35109 ft | 430 kts | 65° |
| 2026-05-07 00:54 | 41.55189 | -109.17476 | 35112 ft | 432 kts | 65° |
| 2026-05-07 00:55 | 41.57042 | -109.09817 | 35112 ft | 440 kts | 65° |
| 2026-05-07 00:55 | 41.58663 | -109.01910 | 35113 ft | 447 kts | 71° |
| 2026-05-07 00:56 | 41.59648 | -108.93684 | 35115 ft | 453 kts | 77° |
| 2026-05-07 00:56 | 41.60303 | -108.85345 | 35115 ft | 453 kts | 77° |
| 2026-05-07 00:57 | 41.60943 | -108.76967 | 35114 ft | 453 kts | 77° |
| 2026-05-07 00:57 | 41.61578 | -108.68638 | 35114 ft | 453 kts | 77° |
| 2026-05-07 00:58 | 41.62210 | -108.60314 | 35114 ft | 453 kts | 77° |
| 2026-05-07 00:58 | 41.62839 | -108.51946 | 35114 ft | 453 kts | 77° |
| 2026-05-07 00:59 | 41.63768 | -108.39446 | 35114 ft | 453 kts | 77° |
| 2026-05-07 01:00 | 41.64383 | -108.31074 | 35114 ft | 453 kts | 77° |
| 2026-05-07 01:00 | 41.64994 | -108.22678 | 35114 ft | 454 kts | 77° |
| 2026-05-07 01:01 | 41.65595 | -108.14320 | 35114 ft | 454 kts | 77° |
| 2026-05-07 01:01 | 41.66190 | -108.05955 | 35114 ft | 454 kts | 77° |
| 2026-05-07 01:02 | 41.66781 | -107.97566 | 35113 ft | 454 kts | 77° |
| 2026-05-07 01:02 | 41.67366 | -107.89180 | 35114 ft | 454 kts | 77° |
| 2026-05-07 01:03 | 41.67942 | -107.80826 | 35114 ft | 454 kts | 77° |
| 2026-05-07 01:03 | 41.68513 | -107.72470 | 35115 ft | 454 kts | 77° |
| 2026-05-07 01:04 | 41.69078 | -107.64096 | 35115 ft | 454 kts | 77° |
| 2026-05-07 01:04 | 41.69638 | -107.55709 | 35115 ft | 454 kts | 77° |
| 2026-05-07 01:05 | 41.70193 | -107.47303 | 35114 ft | 454 kts | 77° |
| 2026-05-07 01:05 | 41.70738 | -107.38963 | 35114 ft | 454 kts | 77° |
| 2026-05-07 01:06 | 41.71281 | -107.30553 | 35114 ft | 454 kts | 78° |
| 2026-05-07 01:06 | 41.71816 | -107.22167 | 35115 ft | 454 kts | 78° |
| 2026-05-07 01:07 | 41.72346 | -107.13761 | 35114 ft | 454 kts | 78° |
| 2026-05-07 01:07 | 41.72869 | -107.05374 | 35113 ft | 454 kts | 78° |
| 2026-05-07 01:08 | 41.73388 | -106.96941 | 35111 ft | 454 kts | 78° |
| 2026-05-07 01:08 | 41.73896 | -106.88602 | 35111 ft | 454 kts | 78° |
| 2026-05-07 01:09 | 41.74402 | -106.80185 | 35111 ft | 454 kts | 78° |
| 2026-05-07 01:09 | 41.74901 | -106.71783 | 35112 ft | 454 kts | 78° |
| 2026-05-07 01:10 | 41.75393 | -106.63393 | 35113 ft | 454 kts | 78° |
| 2026-05-07 01:10 | 41.75882 | -106.54957 | 35115 ft | 454 kts | 78° |
| 2026-05-07 01:11 | 41.76362 | -106.46564 | 35115 ft | 454 kts | 78° |
| 2026-05-07 01:11 | 41.76837 | -106.38153 | 35115 ft | 454 kts | 78° |
| 2026-05-07 01:12 | 41.77306 | -106.29721 | 35114 ft | 455 kts | 79° |
| 2026-05-07 01:12 | 41.77770 | -106.21300 | 35114 ft | 455 kts | 79° |
| 2026-05-07 01:13 | 41.78226 | -106.12880 | 35113 ft | 455 kts | 79° |
| 2026-05-07 01:13 | 41.78678 | -106.04427 | 35112 ft | 455 kts | 79° |
| 2026-05-07 01:14 | 41.79120 | -105.96046 | 35112 ft | 455 kts | 79° |
| 2026-05-07 01:14 | 41.79560 | -105.87599 | 35112 ft | 455 kts | 79° |
| 2026-05-07 01:15 | 41.79991 | -105.79181 | 35113 ft | 455 kts | 79° |
| 2026-05-07 01:15 | 41.80418 | -105.70747 | 35113 ft | 455 kts | 79° |
| 2026-05-07 01:16 | 41.80837 | -105.62326 | 35114 ft | 455 kts | 79° |
| 2026-05-07 01:16 | 41.81252 | -105.53867 | 35115 ft | 455 kts | 79° |
| 2026-05-07 01:17 | 41.81657 | -105.45486 | 35115 ft | 455 kts | 79° |
| 2026-05-07 01:17 | 41.82058 | -105.37058 | 35112 ft | 455 kts | 79° |
| 2026-05-07 01:18 | 41.82456 | -105.28569 | 35107 ft | 455 kts | 79° |
| 2026-05-07 01:18 | 41.82845 | -105.20142 | 35100 ft | 456 kts | 79° |
| 2026-05-07 01:19 | 41.83228 | -105.11697 | 35096 ft | 456 kts | 79° |
| 2026-05-07 01:19 | 41.83605 | -105.03239 | 35093 ft | 456 kts | 79° |
| 2026-05-07 01:20 | 41.83976 | -104.94801 | 35091 ft | 456 kts | 79° |